Time;durP1;ratioP1;P1;durP2;ratioP2;P2;SDS_P1;SDS_P2;PMS_P1;PMS_P2;Temp;Humidity;BMP_temperature;BMP_pressure;BME280_temperature;BME280_humidity;BME280_pressure;Samples;Min_cycle;Max_cycle;Signal;HPM_P1;HPM_P2
2022/06/23 00:01:40;;;;;;;7.82;6.28;;;20.90;66.40;;;;;;4910374;29;20190;-90
2022/06/23 00:04:11;;;;;;;7.60;6.60;;;20.90;66.40;;;;;;4911171;29;20173;-89
2022/06/23 00:06:44;;;;;;;7.88;6.22;;;20.90;66.40;;;;;;4910940;29;20256;-89
2022/06/23 00:09:48;;;;;;;7.28;6.10;;;20.90;66.40;;;;;;4910102;29;20614;-89
2022/06/23 00:12:28;;;;;;;7.57;6.40;;;20.90;66.40;;;;;;4926143;29;20216;-89
2022/06/23 00:15:22;;;;;;;7.85;6.47;;;20.90;66.50;;;;;;4911864;29;20184;-88
2022/06/23 00:17:59;;;;;;;8.82;6.20;;;20.90;66.40;;;;;;4929270;29;20189;-89
2022/06/23 00:20:31;;;;;;;7.50;6.32;;;20.90;66.50;;;;;;4909573;29;20224;-89
2022/06/23 00:23:04;;;;;;;7.32;6.18;;;20.90;66.50;;;;;;4910416;29;20181;-89
2022/06/23 00:25:42;;;;;;;7.22;6.30;;;20.90;66.50;;;;;;4910279;29;20659;-89
2022/06/23 00:28:15;;;;;;;7.60;6.47;;;20.90;66.50;;;;;;4927106;29;20213;-89
2022/06/23 00:30:43;;;;;;;7.72;6.65;;;20.90;66.50;;;;;;4910244;29;20206;-89
2022/06/23 00:33:18;;;;;;;7.88;6.65;;;20.90;66.50;;;;;;4910258;29;20237;-88
2022/06/23 00:35:45;;;;;;;6.82;6.05;;;20.90;66.60;;;;;;4942498;29;20157;-89
2022/06/23 00:38:20;;;;;;;7.28;6.47;;;20.90;66.60;;;;;;4910801;29;20174;-88
2022/06/23 00:40:49;;;;;;;7.40;6.15;;;20.90;66.60;;;;;;4925888;29;20160;-88
2022/06/23 00:43:18;;;;;;;7.13;6.30;;;20.80;66.60;;;;;;4925121;29;20185;-89
2022/06/23 00:45:49;;;;;;;8.32;6.35;;;20.80;66.70;;;;;;4925374;29;20644;-90
2022/06/23 00:48:27;;;;;;;8.13;6.43;;;20.80;67.50;;;;;;4925381;29;20169;-90
2022/06/23 00:51:23;;;;;;;7.10;6.38;;;20.90;66.70;;;;;;4910307;29;20787;-89
2022/06/23 00:54:02;;;;;;;7.40;6.50;;;20.80;66.70;;;;;;4911788;29;20178;-88
2022/06/23 00:56:52;;;;;;;7.03;6.10;;;20.80;66.70;;;;;;4911587;29;20655;-88
2022/06/23 00:59:23;;;;;;;7.53;6.55;;;20.80;66.80;;;;;;4929696;29;20174;-88
2022/06/23 01:01:59;;;;;;;7.95;6.10;;;20.80;66.70;;;;;;4913208;29;20178;-89
2022/06/23 01:04:40;;;;;;;8.13;6.45;;;20.80;66.70;;;;;;4913600;29;20625;-88
2022/06/23 01:07:34;;;;;;;7.93;6.38;;;20.80;66.70;;;;;;4914848;29;20573;-89
2022/06/23 01:10:17;;;;;;;6.95;5.90;;;20.80;66.80;;;;;;4932304;29;20605;-89
2022/06/23 01:12:51;;;;;;;7.45;6.15;;;20.70;66.70;;;;;;4945190;29;20206;-88
2022/06/23 01:15:35;;;;;;;7.70;6.18;;;20.80;66.80;;;;;;4910093;29;20194;-89
2022/06/23 01:18:21;;;;;;;7.15;6.30;;;20.80;66.80;;;;;;4924850;29;20170;-89
2022/06/23 01:21:13;;;;;;;7.20;6.20;;;20.70;66.70;;;;;;4929050;29;20308;-89
2022/06/23 01:24:04;;;;;;;8.15;6.63;;;20.80;66.80;;;;;;4931331;29;20253;-89
2022/06/23 01:26:50;;;;;;;8.25;6.45;;;20.80;66.80;;;;;;4929285;29;20166;-89
2022/06/23 01:29:30;;;;;;;7.03;6.20;;;20.80;66.70;;;;;;4944576;29;20551;-90
2022/06/23 01:32:07;;;;;;;6.90;6.13;;;20.70;66.60;;;;;;4914117;29;20200;-89
2022/06/23 01:34:45;;;;;;;7.90;6.38;;;20.80;66.70;;;;;;4913596;29;20188;-89
2022/06/23 01:37:20;;;;;;;7.68;6.75;;;20.80;66.70;;;;;;4929587;29;20612;-89
2022/06/23 01:39:52;;;;;;;7.53;6.32;;;20.70;66.70;;;;;;4913473;29;20172;-89
2022/06/23 01:42:52;;;;;;;6.60;5.88;;;20.70;66.60;;;;;;4912840;29;20162;-91
2022/06/23 01:45:55;;;;;;;7.38;6.38;;;20.70;66.60;;;;;;4928395;29;20173;-90
2022/06/23 01:51:30;;;;;;;7.10;6.32;;;20.70;66.70;;;;;;4944524;29;20673;-89
2022/06/23 01:54:23;;;;;;;7.45;6.40;;;20.70;66.70;;;;;;4944078;29;20237;-89
2022/06/23 01:57:11;;;;;;;7.30;6.18;;;20.70;66.80;;;;;;4916860;29;20158;-88
2022/06/23 01:59:56;;;;;;;6.82;6.10;;;20.70;66.90;;;;;;4915773;29;20252;-89
2022/06/23 02:02:56;;;;;;;7.55;6.50;;;20.70;66.70;;;;;;4914009;29;20162;-89
2022/06/23 02:05:35;;;;;;;7.03;6.22;;;20.60;66.70;;;;;;4944524;29;20166;-89
2022/06/23 02:08:29;;;;;;;7.32;6.53;;;20.70;66.80;;;;;;4946089;29;20165;-88
2022/06/23 02:11:16;;;;;;;7.25;6.43;;;20.70;66.70;;;;;;4933676;29;20245;-89
2022/06/23 02:13:48;;;;;;;7.30;6.20;;;20.70;66.80;;;;;;4912930;29;20166;-90
2022/06/23 02:16:28;;;;;;;6.93;6.05;;;20.70;66.90;;;;;;4928665;29;20179;-91
2022/06/23 02:19:04;;;;;;;7.22;6.50;;;20.80;66.90;;;;;;4929170;29;20205;-90
2022/06/23 02:21:39;;;;;;;7.10;6.40;;;20.70;66.90;;;;;;4928610;29;20217;-89
2022/06/23 02:24:24;;;;;;;7.88;6.15;;;20.60;66.70;;;;;;4943380;29;20193;-89
2022/06/23 02:27:12;;;;;;;6.95;6.18;;;20.70;66.80;;;;;;4914449;29;20194;-89
2022/06/23 02:29:44;;;;;;;7.10;6.20;;;20.70;66.80;;;;;;4927940;29;20348;-89
2022/06/23 02:32:26;;;;;;;7.53;6.30;;;20.70;66.90;;;;;;4912220;29;20194;-89
2022/06/23 02:35:18;;;;;;;6.80;6.10;;;20.70;66.80;;;;;;4929938;29;20166;-88
2022/06/23 02:37:58;;;;;;;6.53;5.82;;;20.80;66.90;;;;;;4944011;29;20158;-89
2022/06/23 02:40:33;;;;;;;7.53;6.38;;;20.60;66.80;;;;;;4928867;29;20213;-90
2022/06/23 02:43:11;;;;;;;7.25;6.47;;;20.70;66.90;;;;;;4928449;29;20197;-88
2022/06/23 02:46:07;;;;;;;8.40;6.78;;;20.70;66.90;;;;;;4913106;29;20174;-90
2022/06/23 02:48:56;;;;;;;6.93;6.22;;;20.70;66.90;;;;;;4929473;29;20177;-89
2022/06/23 02:51:37;;;;;;;7.50;6.35;;;20.70;66.90;;;;;;4927805;29;20190;-91
2022/06/23 02:54:30;;;;;;;7.57;6.50;;;20.70;66.90;;;;;;4928683;29;20162;-89
2022/06/23 02:57:22;;;;;;;7.60;6.70;;;20.70;66.90;;;;;;4943982;29;20158;-90
2022/06/23 02:59:53;;;;;;;7.07;6.38;;;20.70;66.90;;;;;;4943048;29;20174;-90
2022/06/23 03:02:31;;;;;;;6.90;5.93;;;20.70;66.90;;;;;;4927972;29;20233;-89
2022/06/23 03:05:01;;;;;;;6.68;5.80;;;20.70;66.90;;;;;;4913497;29;20177;-91
2022/06/23 03:07:37;;;;;;;6.60;5.90;;;20.60;66.90;;;;;;4912082;29;20170;-89
2022/06/23 03:10:29;;;;;;;6.97;6.28;;;20.70;66.80;;;;;;4927876;29;20158;-89
2022/06/23 03:13:10;;;;;;;8.07;6.55;;;20.70;66.80;;;;;;4930573;29;20186;-90
2022/06/23 03:15:51;;;;;;;7.38;6.35;;;20.60;66.80;;;;;;4912261;29;20185;-89
2022/06/23 03:18:48;;;;;;;6.55;5.85;;;20.70;66.90;;;;;;4927710;29;20162;-88
2022/06/23 03:21:21;;;;;;;6.78;5.95;;;20.70;66.90;;;;;;4942725;29;20236;-89
2022/06/23 03:23:54;;;;;;;6.82;5.82;;;20.60;66.80;;;;;;4912294;29;20170;-89
2022/06/23 03:26:39;;;;;;;7.55;6.75;;;20.60;66.90;;;;;;4912235;29;20575;-91
2022/06/23 03:29:19;;;;;;;6.80;6.05;;;20.70;66.90;;;;;;4912109;29;20173;-89
2022/06/23 03:32:06;;;;;;;6.70;6.00;;;20.60;66.90;;;;;;4911886;29;20194;-90
2022/06/23 03:34:37;;;;;;;6.63;5.82;;;20.70;66.90;;;;;;4928055;29;20285;-88
2022/06/23 03:37:40;;;;;;;7.72;6.45;;;20.60;67.00;;;;;;4911060;29;20170;-89
2022/06/23 03:43:12;;;;;;;7.78;6.50;;;20.60;67.00;;;;;;4928204;29;20170;-88
2022/06/23 03:45:50;;;;;;;8.48;6.47;;;20.60;67.00;;;;;;4910387;29;20208;-88
2022/06/23 03:48:23;;;;;;;7.55;6.15;;;20.60;67.00;;;;;;4941430;29;20168;-88
2022/06/23 03:51:03;;;;;;;6.80;6.10;;;20.60;66.90;;;;;;4910219;29;20186;-88
2022/06/23 03:53:37;;;;;;;7.28;6.45;;;20.60;67.00;;;;;;4924696;29;20158;-88
2022/06/23 03:56:11;;;;;;;6.55;5.75;;;20.60;67.00;;;;;;4941376;29;20162;-88
2022/06/23 03:58:42;;;;;;;6.93;6.13;;;20.60;66.90;;;;;;4909378;29;20190;-89
2022/06/23 04:01:35;;;;;;;7.00;5.95;;;20.60;67.00;;;;;;4941564;29;20249;-89
2022/06/23 04:04:12;;;;;;;7.15;6.22;;;20.60;67.00;;;;;;4912140;29;20248;-89
2022/06/23 04:06:41;;;;;;;8.23;6.80;;;20.60;67.00;;;;;;4925451;29;20617;-89
2022/06/23 04:09:13;;;;;;;6.80;6.07;;;20.60;67.00;;;;;;4924958;29;20245;-89
2022/06/23 04:12:01;;;;;;;7.20;6.35;;;20.60;66.90;;;;;;4925041;29;20253;-89
2022/06/23 04:14:39;;;;;;;7.78;6.65;;;20.60;67.00;;;;;;4926386;29;20162;-89
2022/06/23 04:17:20;;;;;;;7.65;6.18;;;20.60;67.00;;;;;;4910313;29;20166;-89
2022/06/23 04:20:03;;;;;;;7.07;6.22;;;20.60;66.90;;;;;;4910675;29;20162;-89
2022/06/23 04:22:43;;;;;;;7.32;6.20;;;20.60;67.00;;;;;;4924177;29;20186;-89
2022/06/23 04:25:18;;;;;;;6.85;5.70;;;20.60;66.90;;;;;;4926361;29;20617;-89
2022/06/23 04:27:47;;;;;;;7.03;6.10;;;20.60;67.00;;;;;;4925911;29;20216;-89
2022/06/23 04:30:28;;;;;;;6.85;5.78;;;20.60;67.10;;;;;;4908918;29;20162;-88
2022/06/23 04:32:54;;;;;;;6.88;6.18;;;20.60;67.10;;;;;;4909076;29;20201;-89
2022/06/23 04:35:26;;;;;;;7.13;6.35;;;20.50;67.00;;;;;;4908333;29;20163;-90
2022/06/23 04:38:15;;;;;;;7.07;5.93;;;20.60;67.00;;;;;;4909140;29;20182;-89
2022/06/23 04:40:48;;;;;;;7.28;6.22;;;20.50;67.00;;;;;;4942136;29;20208;-89
2022/06/23 04:43:39;;;;;;;7.13;6.20;;;20.60;67.20;;;;;;4908636;29;20163;-89
2022/06/23 04:46:11;;;;;;;7.28;6.18;;;20.60;67.20;;;;;;4939707;29;20182;-89
2022/06/23 04:49:00;;;;;;;7.05;6.15;;;20.60;67.00;;;;;;4908346;29;20169;-89
2022/06/23 04:51:34;;;;;;;7.10;5.93;;;20.50;67.00;;;;;;4911102;29;20276;-90
2022/06/23 04:54:04;;;;;;;6.60;5.70;;;20.50;66.80;;;;;;4908502;29;20158;-89
2022/06/23 04:56:42;;;;;;;6.70;5.72;;;20.60;66.90;;;;;;4924180;29;20609;-89
2022/06/23 04:59:34;;;;;;;6.88;5.53;;;20.60;66.70;;;;;;4909862;29;20174;-89
2022/06/23 05:02:12;;;;;;;5.88;5.28;;;20.60;66.30;;;;;;4924334;29;20525;-89
2022/06/23 05:04:39;;;;;;;5.47;4.72;;;20.60;66.00;;;;;;4910243;29;20205;-89
2022/06/23 05:07:04;;;;;;;5.00;4.50;;;20.60;66.00;;;;;;4941327;29;20173;-89
2022/06/23 05:09:40;;;;;;;5.10;4.45;;;20.60;65.90;;;;;;4924823;29;20569;-88
2022/06/23 05:12:34;;;;;;;4.85;4.35;;;20.50;66.10;;;;;;4909522;29;20192;-87
2022/06/23 05:15:16;;;;;;;5.35;4.70;;;20.40;66.20;;;;;;4929807;29;20190;-89
2022/06/23 05:17:49;;;;;;;4.50;4.05;;;20.40;66.40;;;;;;4912240;29;20625;-89
2022/06/23 05:20:30;;;;;;;4.90;4.10;;;20.30;66.40;;;;;;4911461;29;20245;-90
2022/06/23 05:22:58;;;;;;;4.95;4.10;;;20.30;66.30;;;;;;4912693;29;20178;-90
2022/06/23 05:25:36;;;;;;;4.35;3.83;;;20.30;66.40;;;;;;4925109;29;20618;-89
2022/06/23 05:28:06;;;;;;;4.30;3.83;;;20.30;66.50;;;;;;4909819;29;20221;-90
2022/06/23 05:30:40;;;;;;;4.55;3.90;;;20.30;66.30;;;;;;4925454;29;20154;-88
2022/06/23 05:33:27;;;;;;;4.45;3.47;;;20.30;66.30;;;;;;4911568;29;20180;-89
2022/06/23 05:35:58;;;;;;;4.30;3.85;;;20.30;66.40;;;;;;4928129;29;20174;-89
2022/06/23 05:38:53;;;;;;;4.28;3.88;;;20.30;66.20;;;;;;4912864;29;20494;-87
2022/06/23 05:41:34;;;;;;;4.32;3.70;;;20.30;66.20;;;;;;4946789;29;20645;-88
2022/06/23 05:44:01;;;;;;;4.47;4.07;;;20.20;66.10;;;;;;4912719;29;20224;-88
2022/06/23 05:46:27;;;;;;;3.83;3.42;;;20.20;66.20;;;;;;4927565;29;20700;-88
2022/06/23 05:49:00;;;;;;;4.20;3.80;;;20.20;66.00;;;;;;4911470;29;20185;-88
2022/06/23 05:51:34;;;;;;;3.95;3.40;;;20.20;66.00;;;;;;4909918;29;20229;-90
2022/06/23 05:54:15;;;;;;;3.83;3.42;;;20.20;65.90;;;;;;4909222;29;20214;-89
2022/06/23 05:56:56;;;;;;;3.70;3.30;;;20.20;65.80;;;;;;4908869;29;20166;-89
2022/06/23 05:59:27;;;;;;;3.85;3.53;;;20.20;65.80;;;;;;4924175;29;20166;-88
2022/06/23 06:02:03;;;;;;;3.58;3.28;;;20.20;65.80;;;;;;4923907;29;20245;-89
2022/06/23 06:04:37;;;;;;;5.05;3.60;;;20.20;65.80;;;;;;4925055;29;20173;-88
2022/06/23 06:07:04;;;;;;;3.75;3.35;;;20.20;65.60;;;;;;4910480;29;20170;-90
2022/06/23 06:09:40;;;;;;;3.50;3.20;;;20.20;65.60;;;;;;4928196;29;20170;-89
2022/06/23 06:12:25;;;;;;;4.43;3.55;;;20.20;65.50;;;;;;4914342;29;20193;-90
2022/06/23 06:14:59;;;;;;;3.60;3.30;;;20.20;65.40;;;;;;4912068;29;20166;-89
2022/06/23 06:17:26;;;;;;;3.45;3.15;;;20.20;65.40;;;;;;4912249;29;20173;-90
2022/06/23 06:19:53;;;;;;;3.50;3.20;;;20.20;65.40;;;;;;4911505;29;20178;-88
2022/06/23 06:22:28;;;;;;;3.22;2.92;;;20.20;65.20;;;;;;4911029;29;20312;-89
2022/06/23 06:24:56;;;;;;;3.88;3.47;;;20.20;65.30;;;;;;4912060;29;20181;-89
2022/06/23 06:27:23;;;;;;;3.60;3.17;;;20.20;65.40;;;;;;4911981;29;20177;-90
2022/06/23 06:29:49;;;;;;;3.90;3.50;;;20.10;65.30;;;;;;4912496;29;20651;-90
2022/06/23 06:32:33;;;;;;;3.40;3.10;;;20.10;65.30;;;;;;4912163;29;20234;-89
2022/06/23 06:35:17;;;;;;;3.92;3.30;;;20.20;65.10;;;;;;4912571;29;20189;-88
2022/06/23 06:37:47;;;;;;;3.50;3.20;;;20.20;65.20;;;;;;4928577;29;20244;-88
2022/06/23 06:40:15;;;;;;;3.33;3.03;;;20.20;65.00;;;;;;4926905;29;20165;-88
2022/06/23 06:42:48;;;;;;;3.40;3.10;;;20.20;64.80;;;;;;4907990;29;20170;-88
2022/06/23 06:45:17;;;;;;;3.60;3.30;;;20.30;64.80;;;;;;4907161;29;20166;-87
2022/06/23 06:48:08;;;;;;;3.50;3.20;;;20.30;64.80;;;;;;4906853;29;20167;-89
2022/06/23 06:50:53;;;;;;;3.72;3.42;;;20.30;65.00;;;;;;4892105;29;20194;-90
2022/06/23 06:54:01;;;;;;;3.70;3.15;;;20.20;65.00;;;;;;4903945;29;20191;-90
2022/06/23 11:43:23;;;;;;;;;;;;;;;;;;;;;
2022/06/23 11:46:24;;;;;;;8.50;3.95;;;21.80;60.40;;;;;;4907600;29;20187;-90
2022/06/23 11:50:04;;;;;;;;;;;;;;;;;;;;;
2022/06/23 11:53:19;;;;;;;4.00;3.60;;;21.80;60.30;;;;;;4755966;30;20249;-88
2022/06/23 12:06:45;;;;;;;4.32;3.45;;;21.90;60.10;;;;;;4734191;30;20272;-91
2022/06/23 12:31:03;;;;;;;;;;;;;;;;;;;;;
2022/06/23 12:37:49;;;;;;;3.80;3.40;;;21.80;60.60;;;;;;4712756;30;20222;-93
2022/06/23 12:44:33;;;;;;;4.65;3.35;;;21.80;60.50;;;;;;4672913;30;20235;-91
2022/06/23 12:47:35;;;;;;;4.38;3.30;;;21.90;60.30;;;;;;4687920;30;20567;-91
2022/06/23 12:50:10;;;;;;;4.13;3.20;;;21.90;60.30;;;;;;4675828;30;20195;-92
2022/06/23 12:53:15;;;;;;;5.78;3.45;;;21.80;60.40;;;;;;4687368;30;20623;-90
2022/06/23 12:56:18;;;;;;;3.50;3.20;;;21.80;60.50;;;;;;4688201;30;20223;-92
2022/06/23 12:59:05;;;;;;;4.20;3.40;;;21.90;60.50;;;;;;4687763;30;20195;-88
2022/06/23 13:01:38;;;;;;;4.03;3.20;;;21.80;60.50;;;;;;4692741;30;20207;-91
2022/06/23 13:04:32;;;;;;;3.80;3.22;;;21.80;60.50;;;;;;4694997;30;20199;-92
2022/06/23 13:07:15;;;;;;;4.13;3.30;;;21.90;60.50;;;;;;4668308;30;20188;-90
2022/06/23 13:44:19;;;;;;;4.38;3.60;;;22.00;59.80;;;;;;4897471;29;20338;-91
2022/06/23 13:46:54;;;;;;;3.55;3.13;;;22.10;59.80;;;;;;4873797;29;20281;-91
2022/06/23 13:49:29;;;;;;;3.92;3.13;;;22.20;59.70;;;;;;4879882;29;20177;-91
2022/06/23 13:52:11;;;;;;;3.58;3.28;;;22.10;60.30;;;;;;4916176;29;20666;-91
2022/06/23 13:54:51;;;;;;;3.30;3.00;;;22.10;59.60;;;;;;4907888;29;20214;-90
2022/06/23 13:57:30;;;;;;;3.63;3.22;;;22.20;59.40;;;;;;4892149;29;20202;-90
2022/06/23 14:00:06;;;;;;;5.22;3.15;;;22.20;59.50;;;;;;4892568;29;20185;-90
2022/06/23 14:03:13;;;;;;;3.65;3.10;;;22.20;59.30;;;;;;4905868;29;20166;-90
2022/06/23 14:05:57;;;;;;;3.38;3.08;;;22.30;59.30;;;;;;4909484;29;20167;-90
2022/06/23 14:08:46;;;;;;;3.90;3.45;;;22.30;59.30;;;;;;4905990;29;20257;-90
2022/06/23 14:11:21;;;;;;;4.28;3.53;;;22.30;59.20;;;;;;4908402;29;20181;-90
2022/06/23 14:13:57;;;;;;;4.13;3.30;;;22.30;59.30;;;;;;4891774;29;20214;-90
2022/06/23 14:16:37;;;;;;;3.25;2.85;;;22.30;59.40;;;;;;4895588;29;20257;-89
2022/06/23 14:19:19;;;;;;;4.35;3.40;;;22.20;59.40;;;;;;4897669;29;20159;-91
2022/06/23 14:21:49;;;;;;;3.35;3.05;;;22.20;59.30;;;;;;4911332;29;20171;-91
2022/06/23 14:24:26;;;;;;;4.50;3.35;;;22.40;59.20;;;;;;4895558;29;20163;-91
2022/06/23 14:27:05;;;;;;;3.55;3.08;;;22.30;59.30;;;;;;4935319;28;20165;-92
2022/06/23 14:30:07;;;;;;;3.85;3.20;;;22.20;59.40;;;;;;4920651;29;20194;-91
2022/06/23 14:32:49;;;;;;;3.90;3.30;;;22.20;59.50;;;;;;4951700;29;20664;-91
2022/06/23 14:35:21;;;;;;;3.85;3.47;;;22.20;59.60;;;;;;4951093;29;20175;-91
2022/06/23 14:38:13;;;;;;;5.60;3.20;;;22.30;59.70;;;;;;4919559;29;20161;-91
2022/06/23 14:40:46;;;;;;;3.45;3.15;;;22.30;59.40;;;;;;4931190;29;20597;-92
2022/06/23 14:43:41;;;;;;;3.90;3.25;;;22.20;59.40;;;;;;4912606;29;20181;-89
2022/06/23 14:46:48;;;;;;;3.65;3.10;;;22.30;59.40;;;;;;4911986;29;20194;-90
2022/06/23 14:49:28;;;;;;;4.25;3.38;;;22.30;59.30;;;;;;4924031;29;20232;-89
2022/06/23 14:52:28;;;;;;;3.70;3.40;;;22.30;59.40;;;;;;4924028;29;20221;-90
2022/06/23 14:55:16;;;;;;;4.07;3.55;;;22.20;59.60;;;;;;4938313;29;20223;-89
2022/06/23 14:58:04;;;;;;;3.40;3.10;;;22.20;59.60;;;;;;4910807;29;20177;-89
2022/06/23 15:00:41;;;;;;;4.40;3.30;;;22.20;59.60;;;;;;4908969;29;20181;-90
2022/06/23 15:03:11;;;;;;;3.47;2.95;;;22.20;59.50;;;;;;4907224;29;20165;-89
2022/06/23 15:05:43;;;;;;;3.80;3.40;;;22.20;59.60;;;;;;4907353;29;20185;-90
2022/06/23 15:08:20;;;;;;;3.58;3.25;;;22.20;59.70;;;;;;4906970;29;20173;-90
2022/06/23 15:10:56;;;;;;;3.85;3.40;;;22.20;59.70;;;;;;4886925;29;20186;-90
2022/06/23 15:13:43;;;;;;;3.03;2.72;;;22.10;59.90;;;;;;4872292;29;20197;-90
2022/06/23 15:16:21;;;;;;;3.28;2.97;;;22.00;60.00;;;;;;4902101;29;20613;-90
2022/06/23 15:18:57;;;;;;;3.85;3.45;;;22.00;60.10;;;;;;4888945;29;20159;-91
2022/06/23 15:24:24;;;;;;;3.70;3.40;;;22.10;60.20;;;;;;4892672;29;20151;-90
2022/06/23 15:26:58;;;;;;;3.70;3.30;;;22.00;60.10;;;;;;4887857;29;20317;-90
2022/06/23 15:29:41;;;;;;;3.65;3.30;;;22.00;60.20;;;;;;4873092;29;20261;-91
2022/06/23 15:32:25;;;;;;;3.80;3.40;;;22.00;60.20;;;;;;4887393;29;20197;-91
2022/06/23 15:34:54;;;;;;;3.53;3.10;;;22.00;60.10;;;;;;4889809;29;20225;-91
2022/06/23 15:37:35;;;;;;;3.40;3.10;;;22.10;60.20;;;;;;4872859;29;20333;-90
2022/06/23 15:40:27;;;;;;;3.47;3.17;;;22.00;60.20;;;;;;4889406;29;20162;-91
2022/06/23 15:43:03;;;;;;;3.50;3.20;;;22.10;60.10;;;;;;4927980;29;20189;-90
2022/06/23 15:45:54;;;;;;;3.42;3.10;;;22.10;60.20;;;;;;4908667;29;20238;-91
2022/06/23 15:48:25;;;;;;;4.07;3.08;;;22.10;60.00;;;;;;4922088;29;20186;-91
2022/06/23 15:50:57;;;;;;;3.75;3.25;;;22.00;60.10;;;;;;4906013;29;20162;-90
2022/06/23 15:53:42;;;;;;;3.30;3.00;;;22.00;60.10;;;;;;4906702;29;20198;-90
2022/06/23 15:56:19;;;;;;;3.88;3.20;;;22.10;60.20;;;;;;4922341;29;20225;-90
2022/06/23 15:58:56;;;;;;;3.75;3.00;;;22.10;60.20;;;;;;4908915;29;20677;-90
2022/06/23 16:01:27;;;;;;;3.28;2.97;;;22.10;60.20;;;;;;4909994;29;20213;-90
2022/06/23 16:03:54;;;;;;;3.25;2.95;;;22.10;60.20;;;;;;4908596;29;20201;-90
2022/06/23 16:06:24;;;;;;;3.63;3.15;;;22.10;60.10;;;;;;4907173;29;20704;-90
2022/06/23 16:08:57;;;;;;;3.50;3.20;;;22.10;60.10;;;;;;4908648;29;20188;-91
2022/06/23 16:11:52;;;;;;;3.45;3.15;;;22.10;60.10;;;;;;4907031;29;20167;-90
2022/06/23 16:14:30;;;;;;;3.40;3.08;;;22.10;60.10;;;;;;4925467;29;20198;-90
2022/06/23 16:17:06;;;;;;;3.40;3.10;;;22.10;60.10;;;;;;4923669;29;20178;-90
2022/06/23 16:19:48;;;;;;;3.40;3.10;;;22.10;60.10;;;;;;4923537;29;20229;-90
2022/06/23 16:22:43;;;;;;;4.18;3.28;;;22.10;60.00;;;;;;4923908;29;20180;-90
2022/06/23 16:25:42;;;;;;;3.53;3.22;;;22.10;60.10;;;;;;4925565;29;20618;-90
2022/06/23 16:28:14;;;;;;;3.00;2.63;;;22.20;60.10;;;;;;4941533;29;20201;-91
2022/06/23 16:30:45;;;;;;;4.32;3.20;;;22.20;60.00;;;;;;4925396;29;20220;-90
2022/06/23 16:33:23;;;;;;;3.05;2.75;;;22.20;59.90;;;;;;4909305;29;20656;-90
2022/06/23 16:35:57;;;;;;;3.30;3.00;;;22.20;60.10;;;;;;4922591;29;20193;-90
2022/06/23 16:38:32;;;;;;;3.40;3.10;;;22.20;60.00;;;;;;4906190;29;20257;-91
2022/06/23 16:41:37;;;;;;;3.75;3.00;;;22.20;59.90;;;;;;4906723;29;20200;-91
2022/06/23 16:44:05;;;;;;;3.50;3.00;;;22.20;59.90;;;;;;4922964;29;20177;-91
2022/06/23 16:46:58;;;;;;;3.40;3.03;;;22.20;59.90;;;;;;4904743;29;20169;-90
2022/06/23 16:49:45;;;;;;;3.92;3.40;;;22.20;59.90;;;;;;4935626;29;20160;-91
2022/06/23 16:52:20;;;;;;;3.97;3.10;;;22.20;59.80;;;;;;4920006;29;20220;-90
2022/06/23 16:54:57;;;;;;;3.45;2.88;;;22.20;59.80;;;;;;4905734;29;20168;-90
2022/06/23 16:57:38;;;;;;;3.75;3.00;;;22.20;59.80;;;;;;4905470;29;20162;-90
2022/06/23 17:00:13;;;;;;;3.53;3.15;;;22.20;59.70;;;;;;4921289;29;20162;-90
2022/06/23 17:02:45;;;;;;;3.35;2.95;;;22.20;59.60;;;;;;4905874;29;20188;-90
2022/06/23 17:05:39;;;;;;;3.17;2.97;;;22.20;59.40;;;;;;4905450;29;20166;-90
2022/06/23 17:08:17;;;;;;;3.22;2.92;;;22.20;59.60;;;;;;4935585;29;20173;-90
2022/06/23 17:11:23;;;;;;;3.17;2.88;;;22.20;59.40;;;;;;4905873;29;20521;-90
2022/06/23 17:13:50;;;;;;;3.10;2.80;;;22.20;59.60;;;;;;4936592;29;20253;-90
2022/06/23 17:16:47;;;;;;;3.08;2.78;;;22.10;59.40;;;;;;4904714;29;20162;-90
2022/06/23 17:19:21;;;;;;;3.08;2.78;;;22.20;59.40;;;;;;4923088;29;20238;-89
2022/06/23 17:21:52;;;;;;;3.40;3.10;;;22.20;59.40;;;;;;4904651;29;20217;-90
2022/06/23 17:24:27;;;;;;;3.05;2.80;;;22.20;59.60;;;;;;4905457;29;20253;-90
2022/06/23 17:27:16;;;;;;;3.30;3.00;;;22.20;59.60;;;;;;4905240;29;20178;-91
2022/06/23 17:30:00;;;;;;;3.50;3.08;;;22.20;59.50;;;;;;4920743;29;20166;-90
2022/06/23 17:32:34;;;;;;;3.13;2.83;;;22.20;59.40;;;;;;4905320;29;20284;-91
2022/06/23 17:35:10;;;;;;;3.20;2.90;;;22.20;59.20;;;;;;4904866;29;20226;-90
2022/06/23 17:37:43;;;;;;;3.08;2.80;;;22.30;59.30;;;;;;4905037;29;20158;-91
2022/06/23 17:43:50;;;;;;;2.65;2.45;;;22.30;59.30;;;;;;4936451;29;20166;-91
2022/06/23 17:46:44;;;;;;;3.15;2.85;;;22.30;58.80;;;;;;4901745;29;20199;-90
2022/06/23 17:49:19;;;;;;;3.35;3.05;;;22.30;58.70;;;;;;4872179;29;20250;-91
2022/06/23 17:51:52;;;;;;;2.92;2.65;;;22.40;59.00;;;;;;4871187;29;20292;-91
2022/06/23 17:54:32;;;;;;;3.03;2.72;;;22.30;59.00;;;;;;4854906;29;20183;-90
2022/06/23 17:57:02;;;;;;;3.03;2.72;;;22.30;59.10;;;;;;4887681;29;20171;-90
2022/06/23 17:59:33;;;;;;;3.30;3.00;;;22.30;59.10;;;;;;4873406;29;20214;-91
2022/06/23 18:02:13;;;;;;;3.10;2.80;;;22.30;59.00;;;;;;4872840;29;20166;-90
2022/06/23 18:04:50;;;;;;;3.30;3.00;;;22.30;59.10;;;;;;4878264;29;20178;-92
2022/06/23 18:07:18;;;;;;;3.10;2.80;;;22.40;58.90;;;;;;4894908;29;20163;-90
2022/06/23 18:09:45;;;;;;;3.08;2.78;;;22.40;58.80;;;;;;4878328;29;20175;-90
2022/06/23 18:12:20;;;;;;;3.55;3.15;;;22.30;59.00;;;;;;4879318;29;20207;-91
2022/06/23 18:14:58;;;;;;;3.00;2.70;;;22.30;59.10;;;;;;4892413;29;20253;-91
2022/06/23 18:17:31;;;;;;;3.47;2.35;;;22.30;59.10;;;;;;4874757;29;20254;-90
2022/06/23 18:20:04;;;;;;;3.42;3.13;;;22.30;59.10;;;;;;4875040;29;20163;-90
2022/06/23 18:22:41;;;;;;;3.30;2.85;;;22.30;59.20;;;;;;4875860;29;20178;-91
2022/06/23 18:25:37;;;;;;;2.75;2.55;;;22.30;59.20;;;;;;4890241;29;20174;-90
2022/06/23 18:28:19;;;;;;;3.83;3.25;;;22.30;59.30;;;;;;4876209;29;20175;-90
2022/06/23 18:31:06;;;;;;;3.50;2.72;;;22.30;59.40;;;;;;4890352;29;20178;-90
2022/06/23 18:33:42;;;;;;;3.20;2.90;;;22.30;59.40;;;;;;4890121;29;20582;-91
2022/06/23 18:36:35;;;;;;;3.13;2.80;;;22.20;59.30;;;;;;4875146;29;20197;-90
2022/06/23 18:39:11;;;;;;;4.05;2.90;;;22.30;59.40;;;;;;4877363;29;20178;-90
2022/06/23 18:41:57;;;;;;;3.10;2.80;;;22.30;59.40;;;;;;4875466;29;20170;-90
2022/06/23 18:44:49;;;;;;;3.22;2.92;;;22.20;59.40;;;;;;4891995;29;20565;-90
2022/06/23 18:47:43;;;;;;;3.22;2.92;;;22.20;59.30;;;;;;4865679;29;20245;-90
2022/06/23 18:50:23;;;;;;;3.30;3.00;;;22.30;59.40;;;;;;4904963;29;20178;-90
2022/06/23 18:53:00;;;;;;;3.03;2.60;;;22.20;59.30;;;;;;4874633;29;20883;-91
2022/06/23 18:55:33;;;;;;;2.95;2.75;;;22.30;59.20;;;;;;4905010;29;20181;-90
2022/06/23 18:58:16;;;;;;;3.22;2.88;;;22.30;59.30;;;;;;4874895;29;20261;-91
2022/06/23 19:00:47;;;;;;;3.35;2.95;;;22.30;59.30;;;;;;4904788;29;20175;-91
2022/06/23 19:03:15;;;;;;;3.28;2.97;;;22.20;59.30;;;;;;4875767;29;20189;-90
2022/06/23 19:05:55;;;;;;;3.03;2.72;;;22.20;59.40;;;;;;4874956;29;20186;-91
2022/06/23 19:08:26;;;;;;;3.50;3.20;;;22.20;59.60;;;;;;4905944;29;20175;-90
2022/06/23 19:11:14;;;;;;;3.22;2.83;;;22.20;59.80;;;;;;4876494;29;20610;-90
2022/06/23 19:13:53;;;;;;;3.10;2.80;;;22.20;60.00;;;;;;4876902;29;20214;-90
2022/06/23 19:16:47;;;;;;;3.00;2.70;;;22.20;60.00;;;;;;4875769;29;20261;-91
2022/06/23 19:19:29;;;;;;;3.35;2.97;;;22.20;60.10;;;;;;4875869;29;20191;-91
2022/06/23 19:22:09;;;;;;;3.42;3.13;;;22.20;60.30;;;;;;4875887;29;20572;-90
2022/06/23 19:25:01;;;;;;;2.67;2.47;;;22.20;60.10;;;;;;4907955;29;20174;-90
2022/06/23 19:27:59;;;;;;;3.30;3.00;;;22.20;60.40;;;;;;4906368;29;20170;-91
2022/06/23 19:30:31;;;;;;;3.20;2.90;;;22.10;60.20;;;;;;4906361;29;20238;-91
2022/06/23 19:33:16;;;;;;;3.15;2.85;;;22.20;60.40;;;;;;4891023;29;20605;-90
2022/06/23 19:35:53;;;;;;;3.35;3.05;;;22.20;60.30;;;;;;4906435;29;20178;-91
2022/06/23 19:38:31;;;;;;;3.10;2.83;;;22.20;60.30;;;;;;4875772;29;20202;-90
2022/06/23 19:41:25;;;;;;;3.08;2.80;;;22.20;60.40;;;;;;4875134;29;20178;-91
2022/06/23 19:44:11;;;;;;;3.25;2.95;;;22.20;60.40;;;;;;4906031;29;20198;-91
2022/06/23 19:46:44;;;;;;;3.25;2.95;;;22.20;60.50;;;;;;4895409;29;20192;-90
2022/06/23 19:49:15;;;;;;;3.38;3.08;;;22.20;60.50;;;;;;4894030;29;20267;-91
2022/06/23 19:51:47;;;;;;;3.00;2.80;;;22.10;60.60;;;;;;4908887;29;20289;-91
2022/06/23 19:54:24;;;;;;;3.00;2.70;;;22.20;60.70;;;;;;4894090;29;20174;-90
2022/06/23 19:56:55;;;;;;;3.50;3.20;;;22.10;60.70;;;;;;4924015;29;20177;-90
2022/06/23 19:59:39;;;;;;;3.35;2.88;;;22.10;60.80;;;;;;4893877;29;20173;-91
2022/06/23 20:02:19;;;;;;;3.33;3.03;;;22.10;61.00;;;;;;4894553;29;20228;-90
2022/06/23 20:04:56;;;;;;;2.92;2.67;;;22.10;61.00;;;;;;4909693;29;20205;-91
2022/06/23 20:07:52;;;;;;;3.33;3.03;;;22.10;61.10;;;;;;4894522;29;20188;-90
2022/06/23 20:10:41;;;;;;;3.40;3.10;;;22.10;61.20;;;;;;4909079;29;20205;-91
2022/06/23 20:13:14;;;;;;;3.55;3.22;;;22.10;61.20;;;;;;4898782;29;20194;-91